KCHA

Lovell Field Airport

Chattanooga, Tennessee, USA
METAR KCHA 252153Z 17006KT 10SM SCT048 BKN065 BKN200 BKN250 30/18 A2992 RMK AO2 SLP122 T03000178
Observed Flight Rules
May-25 @ 21:53 UTC (46 minutes ago) Visual Flight Rules
Wind Visibility Clouds
170° at 6 knots 10 miles
  • Scattered at 4,800' AGL
  • Broken at 6,500' AGL
  • Broken at 20,000' AGL
  • Broken at 25,000' AGL
Temperatures Readings
Current 30°C / 86°F
Dewpoint 18°C / 64°F
Humidity 49%
Altimeter 29.92" Hg
Pressure 1012.2 hPa
Elevation 210
METAR KCHA 252153Z 17006KT 10SM SCT048 BKN065 BKN200 BKN250 30/18 A2992 RMK AO2 SLP122 T03000178
Observed Flight Rules
May-25 @ 21:53 UTC
(46 minutes ago)
VFR
Wind Visibility
170° at 6 knots 10 miles
Clouds
  • Scattered at 4,800' AGL
  • Broken at 6,500' AGL
  • Broken at 20,000' AGL
  • Broken at 25,000' AGL
Temperature Dewpoint
30°C / 86°F 18°C / 64°F
Humidity Altimeter Pressure
49% 29.92" Hg 1012.2 hPa